Shoshone, California Weather observations

Data are for observation ending at time listed.
 Day   Time    Ave.   Ave.  Ave.  Vector   Max.   Stn.    Total    Solar   Ave.  
  of    of     Air    Rel.  Wind   Wind    Wind   Baro.  Precip.   Rad.    Soil  
Year   Day     Temp.  Hum.  Speed  Dir.    Gust   Pres.                    Temp. 
2026   (PST)    F      %     mph   deg.    mph     mb.     in.     W/m2     F   
------------------------------------------------------------------------------
 129   15:10  102.7     6    3.0   107      8.0    962     0.00     665    116.9
 129   15:20  103.3     6    4.4   178     12.5    961     0.00     635    117.1
 129   15:30  103.4     6    3.3   211      7.9    961     0.00     604    117.1
 129   15:40  103.1     6    3.9   234      7.9    961     0.00     573    117.0
 129   15:50  104.2     5    1.7   195      5.2    961     0.00     541    116.9
 129   16:00  103.9     6    1.6   136      5.6    961     0.00     507    116.9
 129   16:10  102.2     5    2.9    72      5.6    961     0.00     474    116.9
 129   16:20  102.7     5    1.7   207      4.0    961     0.00     439    116.6
 129   16:30  103.3     5    2.1    55      5.7    961     0.00     405    116.2
 129   16:40  103.1     6    1.7   152      5.0    961     0.00     369    115.9
 129   16:50  102.7     6    2.6   182      6.4    961     0.00     332    115.4
 129   17:00  104.0     6    1.8   167      5.9    961     0.00     294    114.7
 129   17:10  103.2     6    1.7   190      5.0    961     0.00     258    113.8
 129   17:20  103.6     6    1.5   180      3.6    961     0.00     223    112.9
 129   17:30  103.1     7    1.1   170      4.0    961     0.00     189    111.7
 129   17:40  102.8     7    0.5   149      2.2    961     0.00     156    110.5
 129   17:50  102.2     7    0.5   163      2.9    961     0.00     125    109.2
 129   18:00  100.8     7    1.4   198      3.9    961     0.00      94    107.7
 129   18:10   99.9     8    0.2   166      1.5    961     0.00      64    105.8
 129   18:20   98.7     8    0.1    84      0.7    961     0.00      38    103.5
 129   18:30   95.6     9    0.0     0      0.0    961     0.00      18    100.8
 129   18:40   92.2    10    0.4    72      1.2    961     0.00       7    97.4
 129   18:50   90.4    10    0.0    62      0.9    961     0.00       1    93.5
 129   19:00   89.8    10    1.1    90      2.0    961     0.00       0    89.5
 129   19:10   89.0    10    0.9    88      2.0    961     0.00       0    85.9
 129   19:20   88.1    10    0.8    91      2.0    961     0.00       0    82.7
 129   19:30   86.3    11    0.2    93      1.2    961     0.00       0    79.8
 129   19:40   85.3    11    1.1    83      2.0    961     0.00       0    77.1
 129   19:50   84.0    12    1.0    69      2.5    962     0.00       0    74.7
 129   20:00   82.1    12    1.5    47      3.1    962     0.00       0    72.5
 129   20:10   81.7    12    0.6    72      2.2    962     0.00       0    70.4
 129   20:20   79.7    13    1.0    48      2.2    962     0.00       0    68.4
 129   20:30   80.2    11    2.5    68      4.2    962     0.00       0    66.4
 129   20:40   78.9    12    0.5    75      2.0    962     0.00       0    64.8
 129   20:50   78.5    12    0.8   111      2.7    962     0.00       0    63.2
 129   21:00   79.7    10    2.5    95      5.0    962     0.00       0    61.7
 129   21:10   79.8    10    1.4    73      3.8    962     0.00       0    60.7
 129   21:20   76.3    13    1.6    55      3.1    962     0.00       0    60.0
 129   21:30   76.5    12    1.0    68      2.7    962     0.00       0    58.9
 129   21:40   75.0    14    0.0     0      0.0    962     0.00       0    57.6
 129   21:50   75.1    13    0.1    53      0.9    962     0.00       0    56.3
 129   22:00   73.0    15    1.7   341      2.6    962     0.00       0    55.1
 129   22:10   72.5    17    1.3   300      2.0    962     0.00       0    53.8
 129   22:20   71.1    18    0.8    22      1.9    963     0.00       0    52.5
 129   22:30   71.5    18    1.1   167      2.5    963     0.00       0    51.2
 129   22:40   70.8    19    0.3   160      1.2    963     0.00       0    49.9
 129   22:50   72.0    17    0.5    60      1.5    963     0.00       0    48.9
 129   23:00   72.4    15    0.5    71      1.4    963     0.00       0    48.2
 129   23:10   72.8    15    0.8    81      3.1    963     0.00       0    47.8
 129   23:20   73.4    15    1.7   158      3.8    963     0.00       0    47.6
 129   23:30   71.8    16    1.6    38      3.3    963     0.00       0    47.7
 129   23:40   71.3    16    0.7   132      2.1    963     0.00       0    47.7
 129   23:50   72.0    15    1.6    80      3.0    963     0.00       0    47.4
 130    0:00   70.7    15    2.0   353      3.4    963     0.00       0    47.3
 130    0:10   69.9    15    1.0   288      4.0    963     0.00       0    46.9
 130    0:20   67.5    19    1.3   310      3.5    963     0.00       0    46.4
 130    0:30   65.7    20    1.8   323      2.9    963     0.00       0    45.5
 130    0:40   66.4    19    0.8   341      1.8    963     0.00       0    44.3
 130    0:50   66.4    20    0.0     0      0.0    963     0.00       0    43.2
 130    1:00   66.3    20    0.6    66      1.8    963     0.00       0    42.2
 130    1:10   66.2    20    1.0    51      3.9    964     0.00       0    41.4
 130    1:20   66.2    19    1.5    86      3.5    964     0.00       0    40.8
 130    1:30   66.2    16    1.9    67      3.3    964     0.00       0    40.5
 130    1:40   66.7    16    1.8    49      4.2    964     0.00       0    40.4
 130    1:50   65.9    17    0.2   130      1.1    964     0.00       0    40.4
 130    2:00   65.4    18    0.1    71      0.9    964     0.00       0    40.1
 130    2:10   64.7    19    0.5    28      1.5    964     0.00       0    39.6
 130    2:20   64.0    20    0.6    31      1.5    964     0.00       0    39.1
 130    2:30   63.2    22    1.3   335      3.0    964     0.00       0    38.6
 130    2:40   60.7    26    1.5   293      2.9    964     0.00       0    38.0
 130    2:50   59.8    28    1.9   309      3.5    964     0.00       0    37.1
 130    3:00   62.5    22    3.0    74      5.9    964     0.00       0    36.2
 130    3:10   63.2    20    2.2    28      5.7    964     0.00       0    35.9
 130    3:20   63.8    20    1.1    97      4.3    964     0.00       0    36.0
 130    3:30   62.4    20    0.7   141      2.1    965     0.00       0    36.0
 130    3:40   62.7    20    1.3    36      2.0    965     0.00       0    35.8
 130    3:50   61.9    22    1.0    44      1.9    965     0.00       0    35.5
 130    4:00   61.6    22    0.8    60      2.8    965     0.00       0    35.1
 130    4:10   61.2    22    0.9    58      2.1    965     0.00       0    34.8
 130    4:20   61.6    21    0.7    75      2.4    965     0.00       0    34.5
 130    4:30   61.4    23    1.6    19      4.8    965     0.00       0    34.4
 130    4:40   58.8    29    1.0   328      3.3    965     0.00       4    34.2
 130    4:50   59.1    27    1.2    57      3.5    965     0.00       7    33.7
 130    5:00   59.1    26    0.8   142      2.9    965     0.00       9    33.1
 130    5:10   60.2    23    3.0    79      5.6    966     0.00      19    32.7
 130    5:20   60.7    22    1.5    96      4.8    966     0.00      20    32.8
 130    5:30   60.6    25    0.8   154      1.8    966     0.00      33    33.1
 130    5:40   62.6    22    1.3   122      2.9    966     0.00     117    33.4
 130    5:50   66.3    22    0.4    80      1.6    966     0.00     154    34.4
 130    6:00   67.6    23    1.9   357      2.6    966     0.00     189    36.6
 130    6:10   70.2    20    1.0    32      2.3    966     0.00     226    39.7
 130    6:20   73.9    18    0.4   327      1.4    966     0.00     256    43.4
 130    6:30   75.9    18    0.2   184      1.5    966     0.00     287    47.6
 130    6:40   78.1    16    0.4    40      1.3    967     0.00     325    51.9
 130    6:50   79.4    15    0.2    60      1.2    967     0.00     339    56.3
 130    7:00   81.7    13    0.2    59      1.2    967     0.00     394    60.7
 130    7:10   82.7    14    0.3    57      1.5    967     0.00     429    64.9
 130    7:20   82.8    14    0.3   163      1.2    967     0.00     462    69.2
 130    7:30   84.5    12    0.9   319      2.5    967     0.00     497    73.4
 130    7:40   85.6    11    1.0   292      2.6    967     0.00     530    77.3
 130    7:50   87.0    10    0.8   295      2.9    967     0.00     562    81.1
 130    8:00   86.7    10    1.1   166      2.8    967     0.00     593    84.7
 130    8:10   88.1    10    0.5    84      2.3    967     0.00     623    87.9
 130    8:20   89.7     9    1.7   284      4.8    967     0.00     653    91.1
 130    8:30   90.5     9    2.4   266      6.6    967     0.00     682    94.0
 130    8:40   90.7     8    2.3   329      7.0    967     0.00     709    96.8
 130    8:50   91.8     8    2.5   322      5.8    967     0.00     736    99.2
 130    9:00   93.4     8    4.3   326     12.0    967     0.00     761    101.3
 130    9:10   94.2     8    7.2   321     12.4    967     0.00     785    103.4
 130    9:20   94.5     7    6.5   308     11.6    967     0.00     808    105.1
 130    9:30   95.1     7    5.8   298     11.8    967     0.00     829    106.6
 130    9:40   96.2     7    5.5   313      9.7    967     0.00     849    107.9
 130    9:50   97.0     7    4.5   285      7.5    967     0.00     868    109.2
 130   10:00   97.2     7    5.2   299     10.4    966     0.00     885    110.4
 130   10:10   98.4     7    4.3   282      8.5    966     0.00     900    111.4
 130   10:20   98.9     7    4.5   311      8.7    966     0.00     914    112.2
 130   10:30   99.0     6    2.6   279      6.6    966     0.00     927    112.8
 130   10:40   99.7     6    3.3   240      8.1    966     0.00     937    113.3
 130   10:50  100.9     6    3.3   226      7.3    966     0.00     948    113.6
 130   11:00  100.9     6    3.2   200      8.8    966     0.00     953    113.8
 130   11:10  101.0     6    5.3   182     11.2    966     0.00     962    114.0
 130   11:20  100.8     6    4.0   233      9.5    966     0.00     963    113.8
 130   11:30  101.6     6    4.0   235      8.5    966     0.00     968    113.5
 130   11:40  102.5     6    2.0   263      5.9    966     0.00     972    113.2
 130   11:50  102.8     6    3.8   244      7.9    966     0.00     973    113.1
 130   12:00  102.5     6    3.6   224      9.6    966     0.00     969    113.4
 130   12:10  102.0     6    3.8   329      7.2    966     0.00     964    113.7
 130   12:20  103.4     6    3.1   273      7.0    966     0.00     963    113.9
 130   12:30  104.0     6    4.4   292      8.9    965     0.00     958    114.5
 130   12:40  104.2     6    2.2   158      5.9    965     0.00     949    115.6
 130   12:50  105.4     6    1.8   105      4.7    965     0.00     939    117.0
 130   13:00  106.4     6    1.7   153      7.1    965     0.00     930    118.8
 130   13:10  106.0     6    1.7   177      4.5    965     0.00     917    120.6
 130   13:20  105.7     6    5.1   214     12.4    965     0.00     903    122.1
 130   13:30  104.0     6    5.3   204     11.6    965     0.00     887    122.9
 130   13:40  105.4     6    4.8   182     13.2    964     0.00     871    122.8
 130   13:50  104.8     6    6.8   186     14.3    964     0.00     852    122.8
 130   14:00  104.9     6    2.9   191      9.9    964     0.00     834    122.5
 130   14:10  105.2     6    3.1    46      6.3    964     0.00     813    122.5
 130   14:20  105.4     6    6.6   189     12.8    964     0.00     792    122.7
 130   14:30  105.5     6    4.0   243     10.3    964     0.00     767    122.7
 130   14:40  105.7     6    4.1   184     10.6    963     0.00     742    122.6
 130   14:50  106.8     6    3.8   195     12.6    963     0.00     716    122.7
 130   15:00  104.8     6    4.9   186     11.1    963     0.00     689    122.6

Return to Shoshone, California graphs page.


Western Regional Climate Center,wrcc@dri.edu